createdAt,value
2019-02-04T00:00:58.272Z,4.10
2019-02-04T00:03:34.266Z,4.00
2019-02-04T00:06:01.794Z,3.90
2019-02-04T00:08:28.986Z,3.80
2019-02-04T00:11:03.344Z,3.90
2019-02-04T00:13:32.391Z,4.00
2019-02-04T00:15:59.629Z,3.90
2019-02-04T00:18:27.743Z,3.90
2019-02-04T00:20:57.848Z,3.90
2019-02-04T00:23:24.798Z,4.00
2019-02-04T00:25:51.673Z,4.10
2019-02-04T00:28:20.866Z,4.20
2019-02-04T00:31:05.098Z,4.20
2019-02-04T00:33:33.107Z,4.30
2019-02-04T00:36:00.202Z,4.20
2019-02-04T00:38:27.132Z,4.10
2019-02-04T00:40:54.099Z,4.10
2019-02-04T00:43:29.523Z,4.10
2019-02-04T00:45:59.978Z,4.00
2019-02-04T00:48:26.786Z,4.00
2019-02-04T00:50:58.086Z,3.90
2019-02-04T00:53:25.635Z,3.90
2019-02-04T00:55:53.621Z,3.90
2019-02-04T00:58:20.563Z,4.00
2019-02-04T01:00:47.557Z,4.00
2019-02-04T01:03:14.297Z,4.00
2019-02-04T01:05:48.900Z,4.00
2019-02-04T01:08:18.702Z,4.10
2019-02-04T01:13:38.020Z,4.40
2019-02-04T01:16:04.696Z,4.40
2019-02-04T01:18:31.427Z,4.60
2019-02-04T01:20:58.196Z,4.70
2019-02-04T01:23:24.936Z,4.70
2019-02-04T01:25:51.768Z,4.70
2019-02-04T01:28:18.657Z,4.70
2019-02-04T01:30:45.551Z,5.00
2019-02-04T01:33:12.276Z,5.20
2019-02-04T01:35:43.526Z,5.30
2019-02-04T01:38:10.446Z,5.30
2019-02-04T01:40:37.284Z,5.40
2019-02-04T01:43:04.184Z,5.60
2019-02-04T01:45:31.024Z,5.70
2019-02-04T01:47:57.894Z,5.80
2019-02-04T01:50:24.605Z,5.90
2019-02-04T01:52:51.305Z,6.00
2019-02-04T01:55:17.988Z,6.10
2019-02-04T01:57:48.163Z,6.30
2019-02-04T02:00:20.478Z,6.40
2019-02-04T02:02:47.421Z,6.40
2019-02-04T02:05:14.873Z,6.50
2019-02-04T02:07:42.554Z,6.40
2019-02-04T02:10:12.555Z,6.40
2019-02-04T02:12:39.702Z,6.40
2019-02-04T02:15:07.455Z,6.50
2019-02-04T02:17:34.241Z,6.50
2019-02-04T02:20:01.412Z,6.50
2019-02-04T02:22:28.108Z,6.60
2019-02-04T02:24:55.028Z,6.70
2019-02-04T02:27:21.980Z,6.80
2019-02-04T02:29:48.793Z,6.80
2019-02-04T02:32:15.864Z,6.80
2019-02-04T02:34:42.695Z,6.70
2019-02-04T02:37:09.814Z,6.70
2019-02-04T02:39:52.109Z,6.70
2019-02-04T02:42:18.877Z,6.70
2019-02-04T02:44:45.842Z,6.80
2019-02-04T02:47:12.613Z,6.80
2019-02-04T02:49:39.325Z,6.90
2019-02-04T02:52:06.596Z,6.90
2019-02-04T02:54:36.599Z,6.80
2019-02-04T02:57:09.386Z,6.70
2019-02-04T02:59:36.370Z,6.80
2019-02-04T03:02:03.374Z,6.80
2019-02-04T03:04:30.155Z,6.60
2019-02-04T03:06:56.973Z,6.40
2019-02-04T03:09:24.773Z,6.40
2019-02-04T03:11:53.329Z,6.40
2019-02-04T03:14:29.361Z,6.40
2019-02-04T03:17:05.135Z,6.40
2019-02-04T03:19:41.144Z,6.40
2019-02-04T03:22:18.083Z,6.50
2019-02-04T03:24:47.995Z,6.60
2019-02-04T03:27:14.817Z,6.60
2019-02-04T03:29:41.645Z,6.40
2019-02-04T03:32:08.531Z,6.20
2019-02-04T03:34:35.615Z,6.10
2019-02-04T03:37:02.284Z,6.10
2019-02-04T03:39:29.060Z,6.00
2019-02-04T03:41:57.062Z,6.10
2019-02-04T03:44:23.965Z,6.10
2019-02-04T03:46:50.860Z,6.10
2019-02-04T03:49:17.687Z,6.10
2019-02-04T03:51:44.799Z,6.00
2019-02-04T03:54:11.516Z,5.90
2019-02-04T03:56:38.285Z,6.00
2019-02-04T03:59:05.005Z,6.00
2019-02-04T04:01:31.782Z,5.80
2019-02-04T04:03:58.797Z,5.90
2019-02-04T04:06:25.517Z,6.00
2019-02-04T04:08:52.642Z,6.00
2019-02-04T04:11:19.585Z,6.10
2019-02-04T04:13:46.573Z,6.20
2019-02-04T04:16:13.569Z,6.30
2019-02-04T04:18:40.504Z,6.40
2019-02-04T04:21:07.411Z,6.30
2019-02-04T04:23:34.153Z,6.10
2019-02-04T04:26:01.294Z,6.10
2019-02-04T04:28:28.003Z,6.10
2019-02-04T04:30:54.776Z,6.00
2019-02-04T04:33:21.656Z,5.80
2019-02-04T04:35:48.475Z,5.80
2019-02-04T04:38:15.180Z,5.80
2019-02-04T04:40:42.057Z,5.80
2019-02-04T04:43:08.834Z,5.80
2019-02-04T04:45:35.592Z,5.80
2019-02-04T04:48:02.455Z,5.90
2019-02-04T04:50:29.292Z,5.80
2019-02-04T04:52:56.102Z,5.70
2019-02-04T04:55:24.454Z,5.60
2019-02-04T04:57:51.326Z,5.60
2019-02-04T05:00:20.445Z,5.50
2019-02-04T05:02:47.321Z,5.50
2019-02-04T05:05:14.214Z,5.50
2019-02-04T05:07:41.174Z,5.50
2019-02-04T05:10:13.529Z,5.50
2019-02-04T05:12:40.314Z,5.50
2019-02-04T05:15:10.093Z,5.40
2019-02-04T05:17:37.199Z,5.40
2019-02-04T05:20:06.920Z,5.40
2019-02-04T05:22:33.831Z,5.50
2019-02-04T05:25:00.666Z,5.60
2019-02-04T05:27:27.414Z,5.60
2019-02-04T05:29:54.214Z,5.70
2019-02-04T05:32:21.141Z,5.70
2019-02-04T05:34:48.097Z,5.60
2019-02-04T05:37:15.061Z,5.50
2019-02-04T05:39:41.922Z,5.50
2019-02-04T05:42:08.683Z,5.50
2019-02-04T05:44:35.620Z,5.40
2019-02-04T05:47:02.379Z,5.30
2019-02-04T05:49:29.077Z,5.30
2019-02-04T05:51:56.254Z,5.40
2019-02-04T05:54:23.118Z,5.40
2019-02-04T05:56:49.968Z,5.30
2019-02-04T05:59:17.018Z,5.30
2019-02-04T06:01:43.777Z,5.20
2019-02-04T06:04:12.635Z,5.20
2019-02-04T06:06:39.248Z,5.20
2019-02-04T06:09:06.522Z,5.20
2019-02-04T06:11:33.271Z,5.20
2019-02-04T06:14:00.933Z,5.30
2019-02-04T06:16:27.636Z,5.30
2019-02-04T06:19:00.970Z,5.30
2019-02-04T06:21:23.484Z,5.40
2019-02-04T06:23:50.397Z,5.30
2019-02-04T06:26:22.024Z,5.30
2019-02-04T06:28:48.936Z,5.30
2019-02-04T06:31:15.603Z,5.40
2019-02-04T06:33:42.303Z,5.40
2019-02-04T06:36:09.077Z,5.40
2019-02-04T06:38:35.818Z,5.50
2019-02-04T06:41:02.704Z,5.50
2019-02-04T06:43:30.076Z,5.60
2019-02-04T06:45:56.884Z,5.80
2019-02-04T06:48:23.632Z,6.00
2019-02-04T06:50:50.990Z,6.10
2019-02-04T06:53:18.094Z,6.20
2019-02-04T06:55:44.902Z,6.20
2019-02-04T06:58:11.801Z,6.00
2019-02-04T07:00:39.116Z,5.70
2019-02-04T07:03:05.839Z,5.60
2019-02-04T07:05:43.244Z,5.60
2019-02-04T07:08:01.143Z,5.70
2019-02-04T07:10:28.003Z,5.70
2019-02-04T07:12:54.740Z,5.70
2019-02-04T07:15:21.656Z,5.80
2019-02-04T07:17:48.631Z,5.70
2019-02-04T07:20:18.716Z,5.60
2019-02-04T07:22:45.420Z,5.40
2019-02-04T07:25:14.646Z,5.40
2019-02-04T07:27:41.621Z,5.40
2019-02-04T07:30:11.778Z,5.30
2019-02-04T07:32:38.657Z,5.30
2019-02-04T07:35:08.176Z,5.40
2019-02-04T07:37:34.870Z,5.40
2019-02-04T07:40:01.729Z,5.40
2019-02-04T07:42:28.729Z,5.50
2019-02-04T07:44:55.545Z,5.70
2019-02-04T07:47:22.375Z,5.80
2019-02-04T07:49:49.109Z,5.80
2019-02-04T07:52:15.849Z,5.70
2019-02-04T07:54:42.878Z,5.70
2019-02-04T07:57:09.678Z,5.60
2019-02-04T07:59:36.362Z,5.60
2019-02-04T08:02:03.226Z,5.80
2019-02-04T08:04:30.232Z,6.00
2019-02-04T08:06:56.922Z,6.20
2019-02-04T08:09:23.820Z,6.30
2019-02-04T08:11:51.020Z,6.30
2019-02-04T08:14:17.856Z,6.10
2019-02-04T08:16:44.744Z,6.10
2019-02-04T08:19:11.434Z,6.20
2019-02-04T08:21:38.144Z,6.50
2019-02-04T08:24:04.846Z,6.60
2019-02-04T08:26:31.640Z,6.50
2019-02-04T08:28:58.568Z,6.30
2019-02-04T08:31:25.507Z,6.20
2019-02-04T08:33:52.357Z,6.00
2019-02-04T08:36:19.186Z,6.00
2019-02-04T08:38:45.927Z,5.90
2019-02-04T08:41:12.780Z,6.10
2019-02-04T08:43:39.502Z,6.30
2019-02-04T08:46:06.205Z,6.30
2019-02-04T08:48:33.164Z,6.00
2019-02-04T08:50:59.810Z,5.80
2019-02-04T08:53:26.673Z,5.70
2019-02-04T08:55:53.639Z,5.60
2019-02-04T08:58:20.422Z,5.60
2019-02-04T09:00:47.118Z,5.60
2019-02-04T09:03:13.905Z,5.70
2019-02-04T09:05:40.724Z,5.80
2019-02-04T09:08:07.639Z,5.70
2019-02-04T09:10:34.972Z,5.80
2019-02-04T09:13:01.945Z,5.90
2019-02-04T09:15:28.867Z,6.10
2019-02-04T09:17:56.386Z,6.10
2019-02-04T09:20:23.217Z,6.00
2019-02-04T09:22:49.942Z,5.90
2019-02-04T09:25:18.374Z,5.80
2019-02-04T09:27:45.150Z,5.70
2019-02-04T09:30:15.511Z,5.80
2019-02-04T09:32:42.559Z,5.90
2019-02-04T09:35:12.162Z,5.90
2019-02-04T09:37:39.033Z,5.90
2019-02-04T09:40:09.524Z,6.00
2019-02-04T09:42:36.370Z,6.10
2019-02-04T09:45:07.002Z,6.30
2019-02-04T09:47:33.830Z,6.30
2019-02-04T09:50:00.677Z,6.30
2019-02-04T09:52:27.381Z,6.30
2019-02-04T09:54:54.327Z,6.40
2019-02-04T09:57:21.260Z,6.50
2019-02-04T09:59:48.131Z,6.90
2019-02-04T10:02:15.241Z,6.70
2019-02-04T10:04:41.943Z,6.70
2019-02-04T10:07:08.932Z,6.50
2019-02-04T10:09:35.671Z,6.40
2019-02-04T10:12:02.380Z,6.50
2019-02-04T10:14:29.062Z,6.50
2019-02-04T10:16:56.076Z,6.40
2019-02-04T10:19:22.979Z,6.40
2019-02-04T10:21:49.772Z,6.40
2019-02-04T10:24:16.549Z,6.30
2019-02-04T10:26:43.277Z,6.20
2019-02-04T10:29:10.094Z,6.10
2019-02-04T10:31:38.671Z,6.20
2019-02-04T10:34:05.408Z,6.30
2019-02-04T10:36:32.123Z,6.30
2019-02-04T10:38:59.106Z,6.50
2019-02-04T10:41:25.821Z,6.60
2019-02-04T10:43:52.591Z,6.70
2019-02-04T10:46:19.418Z,6.70
2019-02-04T10:48:46.110Z,6.80
2019-02-04T10:51:12.860Z,6.80
2019-02-04T10:53:39.727Z,6.70
2019-02-04T10:56:06.857Z,6.50
2019-02-04T10:58:33.593Z,6.40
2019-02-04T11:01:00.406Z,6.20
2019-02-04T11:03:27.245Z,6.10
2019-02-04T11:05:54.073Z,5.80
2019-02-04T11:08:20.887Z,5.60
2019-02-04T11:10:47.681Z,5.60
2019-02-04T11:13:15.413Z,5.70
2019-02-04T11:15:42.578Z,5.70
2019-02-04T11:18:09.505Z,5.80
2019-02-04T11:20:36.518Z,5.70
2019-02-04T11:23:04.404Z,5.70
2019-02-04T11:25:31.191Z,5.80
2019-02-04T11:27:57.910Z,6.00
2019-02-04T11:30:39.012Z,6.10
2019-02-04T11:33:05.731Z,6.10
2019-02-04T11:35:32.552Z,5.80
2019-02-04T11:37:59.343Z,5.80
2019-02-04T11:40:34.664Z,5.70
2019-02-04T11:43:01.635Z,5.70
2019-02-04T11:45:28.806Z,5.90
2019-02-04T11:47:55.655Z,5.90
2019-02-04T11:50:22.506Z,5.80
2019-02-04T11:52:49.260Z,5.70
2019-02-04T11:55:16.071Z,5.50
2019-02-04T11:57:42.915Z,5.50
2019-02-04T12:00:13.229Z,5.70
2019-02-04T12:02:40.253Z,5.80
2019-02-04T12:05:10.538Z,5.90
2019-02-04T12:07:37.282Z,6.00
2019-02-04T12:10:10.326Z,6.00
2019-02-04T12:12:37.091Z,6.10
2019-02-04T12:15:10.454Z,5.90
2019-02-04T12:17:37.461Z,5.80
2019-02-04T12:20:07.825Z,5.70
2019-02-04T12:22:34.703Z,5.50
2019-02-04T12:25:01.420Z,5.50
2019-02-04T12:27:32.110Z,5.50
2019-02-04T12:29:57.401Z,5.40
2019-02-04T12:32:24.125Z,5.20
2019-02-04T12:34:50.878Z,5.10
2019-02-04T12:37:17.563Z,5.10
2019-02-04T12:39:44.249Z,5.20
2019-02-04T12:42:11.214Z,5.30
2019-02-04T12:44:37.987Z,5.40
2019-02-04T12:47:04.846Z,5.50
2019-02-04T12:49:31.632Z,5.70
2019-02-04T12:52:01.484Z,5.50
2019-02-04T12:54:28.175Z,5.30
2019-02-04T12:56:54.922Z,5.20
2019-02-04T12:59:21.627Z,5.10
2019-02-04T13:01:48.322Z,5.10
2019-02-04T13:04:15.176Z,5.20
2019-02-04T13:06:41.998Z,5.20
2019-02-04T13:09:08.983Z,5.30
2019-02-04T13:11:36.082Z,5.30
2019-02-04T13:14:03.070Z,5.40
2019-02-04T13:16:29.784Z,5.50
2019-02-04T13:18:56.596Z,5.60
2019-02-04T13:21:23.471Z,5.70
2019-02-04T13:23:50.624Z,5.60
2019-02-04T13:26:17.735Z,5.50
2019-02-04T13:28:44.662Z,5.50
2019-02-04T13:31:11.637Z,5.60
2019-02-04T13:33:38.396Z,5.70
2019-02-04T13:36:05.797Z,5.70
2019-02-04T13:38:32.558Z,5.70
2019-02-04T13:41:08.855Z,5.70
2019-02-04T13:43:29.498Z,5.70
2019-02-04T13:46:16.293Z,5.30
2019-02-04T13:48:43.224Z,5.10
2019-02-04T13:51:09.974Z,5.20
2019-02-04T13:53:36.796Z,5.30
2019-02-04T13:56:03.537Z,5.40
2019-02-04T13:58:30.535Z,5.40
2019-02-04T14:00:57.314Z,5.50
2019-02-04T14:03:24.255Z,5.40
2019-02-04T14:05:50.956Z,5.30
2019-02-04T14:08:17.702Z,5.40
2019-02-04T14:10:46.223Z,5.40
2019-02-04T14:13:12.914Z,5.50
2019-02-04T14:15:39.910Z,5.60
2019-02-04T14:18:06.990Z,5.60
2019-02-04T14:20:33.676Z,5.60
2019-02-04T14:23:00.452Z,5.60
2019-02-04T14:25:27.325Z,5.50
2019-02-04T14:27:54.016Z,5.40
2019-02-04T14:30:26.358Z,5.10
2019-02-04T14:32:53.060Z,5.20
2019-02-04T14:35:19.745Z,5.20
2019-02-04T14:37:46.672Z,5.30
2019-02-04T14:40:18.594Z,5.30
2019-02-04T14:42:43.916Z,5.40
2019-02-04T14:45:17.331Z,5.50
2019-02-04T14:47:47.239Z,5.50
2019-02-04T14:50:17.589Z,5.50
2019-02-04T14:52:53.974Z,5.50
2019-02-04T14:55:30.119Z,5.50
2019-02-04T14:58:12.267Z,5.50
2019-02-04T15:01:04.234Z,5.40
2019-02-04T15:03:49.885Z,5.40
2019-02-04T15:06:23.213Z,5.30
2019-02-04T15:09:10.442Z,5.20
2019-02-04T15:11:44.380Z,5.00
2019-02-04T15:14:24.052Z,5.00
2019-02-04T15:16:54.525Z,5.00
2019-02-04T15:19:40.306Z,5.00
2019-02-04T15:22:33.339Z,5.00
2019-02-04T15:25:23.035Z,4.90
2019-02-04T15:27:59.536Z,5.00
2019-02-04T15:30:49.829Z,5.00
2019-02-04T15:33:26.851Z,5.10
2019-02-04T15:36:15.664Z,5.10
2019-02-04T15:38:52.255Z,5.10
2019-02-04T15:41:43.774Z,5.00
2019-02-04T15:44:22.614Z,5.00
2019-02-04T15:46:52.991Z,5.20
2019-02-04T15:49:23.646Z,5.30
2019-02-04T15:51:52.838Z,5.30
2019-02-04T15:54:19.617Z,5.30
2019-02-04T15:56:46.428Z,5.20
2019-02-04T15:59:13.128Z,5.20
2019-02-04T16:01:39.907Z,5.10
2019-02-04T16:04:28.296Z,5.10
2019-02-04T16:06:56.009Z,5.10
2019-02-04T16:09:22.937Z,5.40
2019-02-04T16:11:49.705Z,5.70
2019-02-04T16:14:16.494Z,5.60
2019-02-04T16:16:43.179Z,5.80
2019-02-04T16:19:10.409Z,5.90
2019-02-04T16:21:37.442Z,5.70
2019-02-04T16:24:04.100Z,5.50
2019-02-04T16:26:30.806Z,5.40
2019-02-04T16:28:57.648Z,5.30
2019-02-04T16:31:24.361Z,5.20
2019-02-04T16:33:51.072Z,5.30
2019-02-04T16:36:18.328Z,5.20
2019-02-04T16:38:45.032Z,5.20
2019-02-04T16:41:11.730Z,5.10
2019-02-04T16:43:38.670Z,5.10
2019-02-04T16:46:05.416Z,5.10
2019-02-04T16:48:32.119Z,5.10
2019-02-04T16:51:10.842Z,5.10
2019-02-04T16:53:27.487Z,5.10
2019-02-04T16:55:54.273Z,5.00
2019-02-04T16:58:21.346Z,5.00
2019-02-04T17:00:48.075Z,5.00
2019-02-04T17:03:14.767Z,5.00
2019-02-04T17:05:41.822Z,5.00
2019-02-04T17:08:08.533Z,5.10
2019-02-04T17:10:35.235Z,5.10
2019-02-04T17:13:02.588Z,5.10
2019-02-04T17:15:29.315Z,5.10
2019-02-04T17:17:56.098Z,5.00
2019-02-04T17:20:25.253Z,5.00
2019-02-04T17:22:51.941Z,4.90
2019-02-04T17:25:18.652Z,4.70
2019-02-04T17:27:45.538Z,4.70
2019-02-04T17:30:15.216Z,4.80
2019-02-04T17:32:41.925Z,4.70
2019-02-04T17:35:08.673Z,4.70
2019-02-04T17:37:35.391Z,4.60
2019-02-04T17:40:02.135Z,4.60
2019-02-04T17:42:28.936Z,4.60
2019-02-04T17:44:55.622Z,4.60
2019-02-04T17:47:22.362Z,4.60
2019-02-04T17:49:49.248Z,4.60
2019-02-04T17:52:16.025Z,4.60
2019-02-04T17:54:42.742Z,4.60
2019-02-04T17:57:09.534Z,4.70
2019-02-04T17:59:36.261Z,4.70
2019-02-04T18:02:03.015Z,4.70
2019-02-04T18:04:29.799Z,4.80
2019-02-04T18:06:56.551Z,4.90
2019-02-04T18:09:23.357Z,4.90
2019-02-04T18:11:50.149Z,4.80
2019-02-04T18:14:16.921Z,4.80
2019-02-04T18:16:43.644Z,4.80
2019-02-04T18:19:10.394Z,4.70
2019-02-04T18:21:37.120Z,4.70
2019-02-04T18:24:03.904Z,4.70
2019-02-04T18:26:30.677Z,4.70
2019-02-04T18:29:00.279Z,4.70
2019-02-04T18:31:29.067Z,4.70
2019-02-04T18:33:57.132Z,4.70
2019-02-04T18:36:23.865Z,4.70
2019-02-04T18:38:51.061Z,4.70
2019-02-04T18:41:17.829Z,4.70
2019-02-04T18:43:44.587Z,4.70
2019-02-04T18:46:11.297Z,4.70
2019-02-04T18:48:39.850Z,4.70
2019-02-04T18:51:06.578Z,4.70
2019-02-04T18:53:33.287Z,4.70
2019-02-04T18:56:00.642Z,4.70
2019-02-04T18:58:27.603Z,4.70
2019-02-04T19:00:54.284Z,4.70
2019-02-04T19:03:21.440Z,4.80
2019-02-04T19:05:48.173Z,4.80
2019-02-04T19:08:14.976Z,4.80
2019-02-04T19:10:41.755Z,4.70
2019-02-04T19:13:08.559Z,4.50
2019-02-04T19:15:35.284Z,4.60
2019-02-04T19:18:11.854Z,4.60
2019-02-04T19:20:38.598Z,4.50
2019-02-04T19:23:05.295Z,4.40
2019-02-04T19:25:36.181Z,4.30
2019-02-04T19:28:04.347Z,4.30
2019-02-04T19:30:37.573Z,4.30
2019-02-04T19:33:04.378Z,4.40
2019-02-04T19:35:31.195Z,4.40
2019-02-04T19:38:04.655Z,4.50
2019-02-04T19:40:31.605Z,4.50
2019-02-04T19:42:58.331Z,4.40
2019-02-04T19:45:26.756Z,4.20
2019-02-04T19:47:53.462Z,4.20
2019-02-04T19:50:26.644Z,4.30
2019-02-04T19:52:53.450Z,4.30
2019-02-04T19:55:20.164Z,4.30
2019-02-04T19:57:46.868Z,4.40
2019-02-04T20:00:16.777Z,4.30
2019-02-04T20:02:45.067Z,4.20
2019-02-04T20:05:14.744Z,4.30
2019-02-04T20:07:41.482Z,4.30
2019-02-04T20:10:10.019Z,4.30
2019-02-04T20:12:36.704Z,4.20
2019-02-04T20:15:07.079Z,4.20
2019-02-04T20:17:33.797Z,4.20
2019-02-04T20:20:00.926Z,4.20
2019-02-04T20:22:27.816Z,4.20
2019-02-04T20:24:54.503Z,4.20
2019-02-04T20:27:21.223Z,4.20
2019-02-04T20:29:47.990Z,4.20
2019-02-04T20:32:14.733Z,4.20
2019-02-04T20:34:41.507Z,4.10
2019-02-04T20:37:08.374Z,4.00
2019-02-04T20:39:35.259Z,4.10
2019-02-04T20:42:02.014Z,4.10
2019-02-04T20:44:28.804Z,4.10
2019-02-04T20:46:55.682Z,4.10
2019-02-04T20:49:22.397Z,4.10
2019-02-04T20:51:49.138Z,4.20
2019-02-04T20:54:19.738Z,4.20
2019-02-04T20:56:44.338Z,4.20
2019-02-04T20:59:11.589Z,4.20
2019-02-04T21:01:38.310Z,4.20
2019-02-04T21:04:05.047Z,4.20
2019-02-04T21:06:33.427Z,4.20
2019-02-04T21:09:00.136Z,4.10
2019-02-04T21:11:26.852Z,4.10
2019-02-04T21:13:53.632Z,4.10
2019-02-04T21:16:20.714Z,4.00
2019-02-04T21:18:47.725Z,4.00
2019-02-04T21:21:14.531Z,4.20
2019-02-04T21:23:41.275Z,4.20
2019-02-04T21:26:08.300Z,4.20
2019-02-04T21:28:35.196Z,4.20
2019-02-04T21:31:01.926Z,4.20
2019-02-04T21:36:33.567Z,4.30
2019-02-04T21:39:00.285Z,4.30
2019-02-04T21:41:27.010Z,4.30
2019-02-04T21:43:54.149Z,4.30
2019-02-04T21:46:22.732Z,4.30
2019-02-04T21:48:49.420Z,4.20
2019-02-04T21:51:16.227Z,4.10
2019-02-04T21:53:42.916Z,4.20
2019-02-04T21:56:09.622Z,4.20
2019-02-04T21:58:36.377Z,4.30
2019-02-04T22:01:03.132Z,4.20
2019-02-04T22:03:29.983Z,4.30
2019-02-04T22:05:56.878Z,4.30
2019-02-04T22:08:23.611Z,4.20
2019-02-04T22:10:50.607Z,4.20
2019-02-04T22:13:17.355Z,4.30
2019-02-04T22:15:44.380Z,4.30
2019-02-04T22:18:11.144Z,4.30
2019-02-04T22:20:38.384Z,4.30
2019-02-04T22:23:08.047Z,4.30
2019-02-04T22:25:36.664Z,4.30
2019-02-04T22:28:11.899Z,4.30
2019-02-04T22:30:40.397Z,4.30
2019-02-04T22:33:07.116Z,4.40
2019-02-04T22:35:33.888Z,4.30
2019-02-04T22:38:01.124Z,4.30
2019-02-04T22:40:30.033Z,4.30
2019-02-04T22:43:17.842Z,4.30
2019-02-04T22:45:44.607Z,4.40
2019-02-04T22:48:11.304Z,4.40
2019-02-04T22:50:38.629Z,4.40
2019-02-04T22:53:05.325Z,4.40
2019-02-04T22:55:32.827Z,4.40
2019-02-04T22:57:59.802Z,4.40
2019-02-04T23:00:46.849Z,4.40
2019-02-04T23:03:14.479Z,4.40
2019-02-04T23:05:41.237Z,4.40
2019-02-04T23:08:08.029Z,4.40
2019-02-04T23:10:34.755Z,4.40
2019-02-04T23:13:01.463Z,4.50
2019-02-04T23:15:28.153Z,4.50
2019-02-04T23:17:54.900Z,4.50
2019-02-04T23:20:21.609Z,4.50
2019-02-04T23:22:48.300Z,4.50
2019-02-04T23:25:15.113Z,4.50
2019-02-04T23:27:41.774Z,4.50
2019-02-04T23:30:16.518Z,4.60
2019-02-04T23:32:43.242Z,4.50
2019-02-04T23:35:09.979Z,4.40
2019-02-04T23:37:37.099Z,4.50
2019-02-04T23:40:06.140Z,4.50
2019-02-04T23:42:32.832Z,4.50
2019-02-04T23:44:59.530Z,4.50
2019-02-04T23:47:26.483Z,4.50
2019-02-04T23:49:53.192Z,4.50
2019-02-04T23:52:19.936Z,4.50
2019-02-04T23:54:46.672Z,4.50
2019-02-04T23:57:13.549Z,4.40
2019-02-04T23:59:40.242Z,4.50
